Montgomery, IN (47558)

1:26 PM EST on December 07, 2016 (GMT -0500)
Daviess County | | Change Station

Elev 472 ft 38.70 °N, 87.13 °W | Updated 11 minutes ago

Overcast
Overcast
36 °F
Feels Like 32 °F
N
5
Wind Variable Wind from West

Today
High -- | Low -- °F
--% Chance of Precip.
Yesterday
High -- | Low -- °F
Precip. -- in
Pressure 30.19 in
Visibility 10.0 miles
Clouds Overcast 10000 ft
Windchill 32 °F
Dew Point 24 °F
Humidity 63%
Rainfall 0.00 in
Snow Depth Not available.
7:53 AM 5:26 PM
First Quarter, 54% visible
METAR KDCY 071815Z AUTO 28004KT 10SM OVC100 02/M04 A3019 RMK AO2 T00201043
Pressure 30.19 in
Visibility 10.0 miles
Clouds Overcast 10000 ft
Windchill 32 °F
Dew Point 24 °F
Humidity 63%
Rainfall 0.00 in
Snow Depth Not available.
7:53 AM 5:26 PM
First Quarter, 54% visible
METAR KDCY 071815Z AUTO 28004KT 10SM OVC100 02/M04 A3019 RMK AO2 T00201043

10-Day Weather Forecast

Almanac

Astronomy

Dec. 07, 2016 Rise Set
Actual Time
Civil Twilight
Nautical Twilight
Astronomical Twilight
Moon
Length of Visible Light
Length of Day
Tomorrow will be .
, % of the Moon is Illuminated

Today's Extremes

State Highs State Lows

Community

WunderPhotos

Upload Photos

1,956,160 photos uploaded!

WunderBlog® & News

Nearby

Air Quality

  Air Quality AQ Index Pollutant
Not available.

Snow Depth

Station Depth Elevation

Earthquake Activity

City Distance Mag. Time & Date
Minimum magnitude displayed is 2.5.

Coastal Water Temperatures

Place Temperature

Stations

Nearby Weather Stations

Station Location Temp. Windchill Dew Point Humidity Wind Precip. Elev Updated Type
                   

Watches & Warnings

There are currently no watches in effect.